Time;durP1;ratioP1;P1;durP2;ratioP2;P2;SDS_P1;SDS_P2;PMS_P1;PMS_P2;Temp;Humidity;BMP_temperature;BMP_pressure;BME280_temperature;BME280_humidity;BME280_pressure;Samples;Min_cycle;Max_cycle;Signal;HPM_P1;HPM_P2
2022/01/10 00:00:02;;;;;;;;;;;;;;;;;;5051794;28;19936;-84
2022/01/10 00:02:28;;;;;;;;;;;;;;;;;;5028208;28;19924;-84
2022/01/10 00:04:54;;;;;;;;;;;;;;;;;;5053341;28;20007;-84
2022/01/10 00:07:20;;;;;;;;;;;;;;;;;;5032931;28;19920;-84
2022/01/10 00:09:46;;;;;;;;;;;;;;;;;;5033398;28;19928;-84
2022/01/10 00:12:12;;;;;;;;;;;;;;;;;;5033263;28;19924;-84
2022/01/10 00:14:38;;;;;;;;;;;;;;;;;;5030455;28;19928;-84
2022/01/10 00:17:04;;;;;;;;;;;;;;;;;;5031900;28;19973;-84
2022/01/10 00:19:30;;;;;;;;;;;;;;;;;;5028809;28;19928;-84
2022/01/10 00:21:56;;;;;;;;;;;;;;;;;;5063598;28;19924;-84
2022/01/10 00:24:23;;;;;;;;;;;;;;;;;;5045570;28;19921;-84
2022/01/10 00:26:50;;;;;;;;;;;;;;;;;;5046111;28;20311;-84
2022/01/10 00:29:18;;;;;;;;;;;;;;;;;;5034493;28;19939;-84
2022/01/10 00:31:44;;;;;;;;;;;;;;;;;;5051396;28;19924;-84
2022/01/10 00:34:11;;;;;;;;;;;;;;;;;;5048445;28;19925;-84
2022/01/10 00:36:38;;;;;;;;;;;;;;;;;;5029106;28;22199;-84
2022/01/10 00:39:04;;;;;;;;;;;;;;;;;;5068118;28;19916;-85
2022/01/10 00:41:32;;;;;;;;;;;;;;;;;;5043557;28;20642;-84
2022/01/10 00:44:01;;;;;;;;;;;;;;;;;;5050539;28;19921;-84
2022/01/10 00:46:28;;;;;;;;;;;;;;;;;;5046998;28;19931;-84
2022/01/10 00:48:55;;;;;;;;;;;;;;;;;;5054891;28;19920;-84
2022/01/10 00:51:21;;;;;;;;;;;;;;;;;;5049234;28;19924;-84
2022/01/10 00:54:02;;;;;;;;;;;;;;;;;;5046229;28;19936;-84
2022/01/10 00:56:28;;;;;;;;;;;;;;;;;;5029964;28;19920;-85
2022/01/10 00:59:13;;;;;;;;;;;;;;;;;;5026288;28;19922;-84
2022/01/10 01:01:39;;;;;;;;;;;;;;;;;;5019696;28;19928;-85
2022/01/10 01:04:05;;;;;;;;;;;;;;;;;;5029362;28;19932;-85
2022/01/10 01:06:32;;;;;;;;;;;;;;;;;;5029189;28;19947;-84
2022/01/10 01:09:02;;;;;;;;;;;;;;;;;;5015911;28;19921;-84
2022/01/10 01:14:24;;;;;;;;;;;;;;;;;;5049416;28;20398;-84
2022/01/10 01:17:10;;;;;;;;;;;;;;;;;;5031110;28;19920;-84
2022/01/10 01:25:07;;;;;;;;;;;;;;;;;;5041618;28;19927;-84
2022/01/10 01:27:33;;;;;;;;;;;;;;;;;;5032307;28;19972;-83
2022/01/10 01:30:01;;;;;;;;;;;;;;;;;;5054628;28;19935;-84
2022/01/10 01:32:27;;;;;;;;;;;;;;;;;;5053430;28;19932;-84
2022/01/10 01:34:57;;;;;;;;;;;;;;;;;;5055345;28;19928;-83
2022/01/10 01:37:25;;;;;;;;;;;;;;;;;;5065146;28;22740;-84
2022/01/10 01:39:51;;;;;;;;;;;;;;;;;;5050628;28;19928;-84
2022/01/10 01:42:34;;;;;;;;;;;;;;;;;;5063520;28;19924;-83
2022/01/10 01:45:09;;;;;;;;;;;;;;;;;;5064170;28;19947;-84
2022/01/10 01:47:36;;;;;;;;;;;;;;;;;;5070490;28;19924;-84
2022/01/10 01:50:03;;;;;;;;;;;;;;;;;;5072607;28;19920;-84
2022/01/10 01:52:30;;;;;;;;;;;;;;;;;;5044300;28;20011;-84
2022/01/10 01:54:56;;;;;;;;;;;;;;;;;;5070459;28;19935;-84
2022/01/10 01:57:23;;;;;;;;;;;;;;;;;;5059189;28;19928;-84
2022/01/10 01:59:51;;;;;;;;;;;;;;;;;;5068146;28;20279;-84
2022/01/10 02:02:22;;;;;;;;;;;;;;;;;;5048742;28;19963;-84
2022/01/10 02:04:48;;;;;;;;;;;;;;;;;;5068370;28;20014;-84
2022/01/10 02:07:14;;;;;;;;;;;;;;;;;;5074656;28;19930;-84
2022/01/10 02:09:40;;;;;;;;;;;;;;;;;;5048022;28;19932;-84
2022/01/10 02:12:06;;;;;;;;;;;;;;;;;;5067449;28;19931;-84
2022/01/10 02:14:32;;;;;;;;;;;;;;;;;;5066637;28;20374;-84
2022/01/10 02:17:16;;;;;;;;;;;;;;;;;;5051594;28;20069;-84
2022/01/10 02:19:42;;;;;;;;;;;;;;;;;;5047133;28;20347;-83
2022/01/10 02:22:07;;;;;;;;;;;;;;;;;;5050972;28;20019;-83
2022/01/10 02:24:35;;;;;;;;;;;;;;;;;;5031625;28;19974;-83
2022/01/10 02:27:00;;;;;;;;;;;;;;;;;;5021666;28;19925;-84
2022/01/10 02:29:27;;;;;;;;;;;;;;;;;;5030558;28;19936;-84
2022/01/10 02:31:53;;;;;;;;;;;;;;;;;;5046907;28;19935;-84
2022/01/10 02:34:26;;;;;;;;;;;;;;;;;;5045476;28;19928;-84
2022/01/10 02:36:57;;;;;;;;;;;;;;;;;;5053877;28;19977;-84
2022/01/10 02:39:33;;;;;;;;;;;;;;;;;;5019041;28;19932;-84
2022/01/10 02:41:59;;;;;;;;;;;;;;;;;;5017412;28;19920;-84
2022/01/10 02:44:26;;;;;;;;;;;;;;;;;;5014409;28;19943;-83
2022/01/10 02:46:52;;;;;;;;;;;;;;;;;;5019481;28;19921;-83
2022/01/10 02:49:19;;;;;;;;;;;;;;;;;;5064557;28;19924;-83
2022/01/10 02:51:44;;;;;;;;;;;;;;;;;;5061298;28;19924;-83
2022/01/10 02:54:14;;;;;;;;;;;;;;;;;;5053857;28;19927;-83
2022/01/10 02:56:56;;;;;;;;;;;;;;;;;;5092303;28;19930;-84
2022/01/10 02:59:23;;;;;;;;;;;;;;;;;;5085762;27;19923;-83
2022/01/10 03:01:50;;;;;;;;;;;;;;;;;;5060777;28;19930;-84
2022/01/10 03:04:16;;;;;;;;;;;;;;;;;;5089983;28;20011;-84
2022/01/10 03:06:42;;;;;;;;;;;;;;;;;;5073102;28;20328;-83
2022/01/10 03:09:08;;;;;;;;;;;;;;;;;;5075115;28;20021;-84
2022/01/10 03:11:34;;;;;;;;;;;;;;;;;;5070994;28;20014;-84
2022/01/10 03:14:00;;;;;;;;;;;;;;;;;;5068925;28;20404;-83
2022/01/10 03:16:27;;;;;;;;;;;;;;;;;;5067963;28;19963;-83
2022/01/10 03:18:53;;;;;;;;;;;;;;;;;;5057413;28;19928;-83
2022/01/10 03:21:20;;;;;;;;;;;;;;;;;;5053421;28;19926;-83
2022/01/10 03:23:47;;;;;;;;;;;;;;;;;;5082145;28;19928;-83
2022/01/10 03:26:13;;;;;;;;;;;;;;;;;;5072647;28;19926;-84
2022/01/10 03:28:40;;;;;;;;;;;;;;;;;;5047660;28;20012;-83
2022/01/10 03:31:05;;;;;;;;;;;;;;;;;;5068981;28;20357;-83
2022/01/10 03:33:31;;;;;;;;;;;;;;;;;;5065261;28;20050;-84
2022/01/10 03:35:57;;;;;;;;;;;;;;;;;;5053323;28;19966;-84
2022/01/10 03:38:23;;;;;;;;;;;;;;;;;;5068100;28;20298;-83
2022/01/10 03:40:49;;;;;;;;;;;;;;;;;;5066884;28;20355;-84
2022/01/10 03:43:30;;;;;;;;;;;;;;;;;;5041961;28;19921;-84
2022/01/10 03:45:58;;;;;;;;;;;;;;;;;;5032514;28;19928;-83
2022/01/10 03:48:25;;;;;;;;;;;;;;;;;;5028943;28;19924;-84
2022/01/10 03:50:56;;;;;;;;;;;;;;;;;;5053796;28;19969;-84
2022/01/10 03:53:23;;;;;;;;;;;;;;;;;;5027388;28;19975;-83
2022/01/10 03:55:50;;;;;;;;;;;;;;;;;;5033165;28;19924;-84
2022/01/10 03:58:16;;;;;;;;;;;;;;;;;;5034209;28;19921;-83
2022/01/10 04:00:44;;;;;;;;;;;;;;;;;;5034928;28;19921;-84
2022/01/10 04:03:10;;;;;;;;;;;;;;;;;;5017072;28;19945;-84
2022/01/10 04:05:36;;;;;;;;;;;;;;;;;;5032810;28;19928;-84
2022/01/10 04:08:02;;;;;;;;;;;;;;;;;;5045669;28;20445;-84
2022/01/10 04:10:29;;;;;;;;;;;;;;;;;;5029943;28;19961;-83
2022/01/10 04:12:56;;;;;;;;;;;;;;;;;;5036721;28;20016;-83
2022/01/10 04:15:22;;;;;;;;;;;;;;;;;;5058121;28;19928;-83
2022/01/10 04:17:56;;;;;;;;;;;;;;;;;;5050310;28;19920;-83
2022/01/10 04:20:32;;;;;;;;;;;;;;;;;;5066495;28;20312;-83
2022/01/10 04:22:58;;;;;;;;;;;;;;;;;;5074531;28;19920;-83
2022/01/10 04:25:25;;;;;;;;;;;;;;;;;;5062782;28;19927;-84
2022/01/10 04:27:51;;;;;;;;;;;;;;;;;;5071983;28;19928;-84
2022/01/10 04:30:20;;;;;;;;;;;;;;;;;;5078488;28;19931;-84
2022/01/10 04:32:46;;;;;;;;;;;;;;;;;;5067991;28;19931;-83
2022/01/10 04:35:12;;;;;;;;;;;;;;;;;;5068934;28;19935;-83
2022/01/10 04:37:39;;;;;;;;;;;;;;;;;;5052679;28;20001;-84
2022/01/10 04:40:06;;;;;;;;;;;;;;;;;;5076165;28;19934;-83
2022/01/10 04:42:32;;;;;;;;;;;;;;;;;;5074535;28;20338;-83
2022/01/10 04:45:01;;;;;;;;;;;;;;;;;;5098191;28;19923;-83
2022/01/10 04:47:27;;;;;;;;;;;;;;;;;;5068864;28;20425;-84
2022/01/10 04:52:38;;;;;;;;;;;;;;;;;;5068004;28;23064;-84
2022/01/10 04:55:04;;;;;;;;;;;;;;;;;;5072960;28;19920;-83
2022/01/10 04:57:30;;;;;;;;;;;;;;;;;;5072411;28;19996;-83
2022/01/10 04:59:56;;;;;;;;;;;;;;;;;;5079731;28;19920;-83
2022/01/10 05:02:22;;;;;;;;;;;;;;;;;;5069507;28;19955;-82
2022/01/10 05:04:48;;;;;;;;;;;;;;;;;;5076852;28;20348;-81
2022/01/10 05:07:14;;;;;;;;;;;;;;;;;;5059958;28;20054;-82
2022/01/10 05:09:41;;;;;;;;;;;;;;;;;;5064433;28;20375;-82
2022/01/10 05:12:07;;;;;;;;;;;;;;;;;;5089679;28;19931;-82
2022/01/10 05:14:34;;;;;;;;;;;;;;;;;;5066275;28;19927;-84
2022/01/10 05:17:01;;;;;;;;;;;;;;;;;;5092347;28;19920;-83
2022/01/10 05:19:28;;;;;;;;;;;;;;;;;;5071306;28;19974;-83
2022/01/10 05:21:54;;;;;;;;;;;;;;;;;;5061387;28;19959;-83
2022/01/10 05:24:20;;;;;;;;;;;;;;;;;;5074765;28;19955;-83
2022/01/10 05:26:46;;;;;;;;;;;;;;;;;;5074779;28;19928;-83
2022/01/10 05:29:12;;;;;;;;;;;;;;;;;;5069657;28;19951;-82
2022/01/10 05:31:39;;;;;;;;;;;;;;;;;;5068341;28;19981;-83
2022/01/10 05:34:06;;;;;;;;;;;;;;;;;;5068766;28;19974;-83
2022/01/10 05:36:33;;;;;;;;;;;;;;;;;;5083416;27;19962;-83
2022/01/10 05:38:59;;;;;;;;;;;;;;;;;;5071299;28;20354;-83
2022/01/10 05:41:26;;;;;;;;;;;;;;;;;;5086376;28;19924;-82
2022/01/10 05:43:55;;;;;;;;;;;;;;;;;;5073972;28;20332;-83
2022/01/10 05:46:23;;;;;;;;;;;;;;;;;;5081272;28;19924;-83
2022/01/10 05:48:53;;;;;;;;;;;;;;;;;;5060878;28;19926;-83
2022/01/10 05:51:23;;;;;;;;;;;;;;;;;;5075492;28;19930;-82
2022/01/10 05:53:50;;;;;;;;;;;;;;;;;;5088881;28;19924;-83
2022/01/10 05:56:16;;;;;;;;;;;;;;;;;;5093941;28;19924;-83
2022/01/10 05:58:46;;;;;;;;;;;;;;;;;;5094016;27;19927;-82
2022/01/10 06:01:12;;;;;;;;;;;;;;;;;;5094575;28;19931;-83
2022/01/10 06:03:39;;;;;;;;;;;;;;;;;;5066450;28;19928;-82
2022/01/10 06:06:05;;;;;;;;;;;;;;;;;;5072540;28;19916;-84
2022/01/10 06:08:34;;;;;;;;;;;;;;;;;;5071708;28;19928;-83
2022/01/10 06:11:01;;;;;;;;;;;;;;;;;;5075743;28;19923;-83
2022/01/10 06:13:28;;;;;;;;;;;;;;;;;;5067984;28;19970;-83
2022/01/10 06:15:55;;;;;;;;;;;;;;;;;;5075316;28;19939;-84
2022/01/10 06:18:21;;;;;;;;;;;;;;;;;;5069875;28;20022;-83
2022/01/10 06:20:47;;;;;;;;;;;;;;;;;;5075420;28;19927;-83
2022/01/10 06:23:13;;;;;;;;;;;;;;;;;;5073280;28;19950;-83
2022/01/10 06:25:39;;;;;;;;;;;;;;;;;;5086313;28;19924;-84
2022/01/10 06:28:05;;;;;;;;;;;;;;;;;;5088885;28;20290;-84
2022/01/10 06:30:31;;;;;;;;;;;;;;;;;;5064665;28;19932;-83
2022/01/10 06:32:57;;;;;;;;;;;;;;;;;;5070248;28;19932;-83
2022/01/10 06:35:23;;;;;;;;;;;;;;;;;;5066078;28;19928;-83
2022/01/10 06:37:50;;;;;;;;;;;;;;;;;;5072030;28;20286;-84
2022/01/10 06:40:17;;;;;;;;;;;;;;;;;;5070394;28;20400;-84
2022/01/10 06:42:43;;;;;;;;;;;;;;;;;;5072657;28;19970;-84
2022/01/10 06:45:10;;;;;;;;;;;;;;;;;;5054397;28;19978;-83
2022/01/10 06:47:36;;;;;;;;;;;;;;;;;;5066166;28;19928;-84
2022/01/10 06:50:02;;;;;;;;;;;;;;;;;;5071001;28;19970;-83
2022/01/10 06:52:37;;;;;;;;;;;;;;;;;;5066435;28;19939;-83
2022/01/10 06:55:03;;;;;;;;;;;;;;;;;;5068169;28;19935;-83
2022/01/10 06:57:29;;;;;;;;;;;;;;;;;;5052976;28;19932;-84
2022/01/10 06:59:56;;;;;;;;;;;;;;;;;;5051597;28;19924;-83
2022/01/10 07:02:22;;;;;;;;;;;;;;;;;;5084633;28;19950;-82
2022/01/10 07:04:48;;;;;;;;;;;;;;;;;;5074651;28;19924;-82
2022/01/10 07:07:14;;;;;;;;;;;;;;;;;;5075197;28;19984;-82
2022/01/10 07:09:40;;;;;;;;;;;;;;;;;;5070223;28;20320;-81
2022/01/10 07:12:06;;;;;;;;;;;;;;;;;;5073430;28;19924;-83
2022/01/10 07:14:34;;;;;;;;;;;;;;;;;;5055025;28;19924;-82
2022/01/10 07:17:01;;;;;;;;;;;;;;;;;;5073731;28;20286;-83
2022/01/10 07:19:27;;;;;;;;;;;;;;;;;;5063747;28;20690;-82
2022/01/10 07:21:54;;;;;;;;;;;;;;;;;;5071837;28;19971;-84
2022/01/10 07:24:21;;;;;;;;;;;;;;;;;;5064882;28;19981;-82
2022/01/10 07:26:47;;;;;;;;;;;;;;;;;;5058581;28;20324;-83
2022/01/10 07:29:14;;;;;;;;;;;;;;;;;;5071740;28;19950;-84
2022/01/10 07:31:57;;;;;;;;;;;;;;;;;;5067103;28;20015;-86
2022/01/10 07:34:23;;;;;;;;;;;;;;;;;;5067989;28;20371;-84
2022/01/10 07:36:49;;;;;;;;;;;;;;;;;;5074123;28;19928;-83
2022/01/10 07:39:16;;;;;;;;;;;;;;;;;;5072687;28;19927;-82
2022/01/10 07:41:42;;;;;;;;;;;;;;;;;;5067465;28;20367;-85
2022/01/10 07:44:09;;;;;;;;;;;;;;;;;;5056049;28;19931;-83
2022/01/10 07:46:36;;;;;;;;;;;;;;;;;;5065835;28;19931;-84
2022/01/10 07:49:02;;;;;;;;;;;;;;;;;;5052407;28;19925;-84
2022/01/10 07:51:29;;;;;;;;;;;;;;;;;;5060559;28;19934;-84
2022/01/10 07:53:55;;;;;;;;;;;;;;;;;;5069731;28;19920;-82
2022/01/10 07:56:22;;;;;;;;;;;;;;;;;;5067447;28;20004;-78
2022/01/10 07:58:51;;;;;;;;;;;;;;;;;;5070392;28;20477;-80
2022/01/10 08:01:19;;;;;;;;;;;;;;;;;;5066299;28;20015;-82
2022/01/10 08:03:50;;;;;;;;;;;;;;;;;;5070792;28;19921;-80
2022/01/10 08:06:17;;;;;;;;;;;;;;;;;;5065834;28;19924;-79
2022/01/10 08:08:43;;;;;;;;;;;;;;;;;;5071206;28;19931;-80
2022/01/10 08:11:10;;;;;;;;;;;;;;;;;;5057223;28;19930;-80
2022/01/10 08:13:37;;;;;;;;;;;;;;;;;;5070497;28;19932;-79
2022/01/10 08:16:04;;;;;;;;;;;;;;;;;;5074835;28;20349;-80
2022/01/10 08:18:31;;;;;;;;;;;;;;;;;;5087705;28;19930;-79
2022/01/10 08:20:58;;;;;;;;;;;;;;;;;;5078568;28;19920;-80
2022/01/10 08:23:24;;;;;;;;;;;;;;;;;;5073937;28;19927;-80
2022/01/10 08:25:50;;;;;;;;;;;;;;;;;;5064167;28;19920;-80
2022/01/10 08:28:17;;;;;;;;;;;;;;;;;;5077120;28;19924;-79
2022/01/10 08:30:44;;;;;;;;;;;;;;;;;;5080909;28;20373;-80
2022/01/10 08:33:10;;;;;;;;;;;;;;;;;;5080429;28;19925;-80
2022/01/10 08:35:37;;;;;;;;;;;;;;;;;;5073293;28;19927;-80
2022/01/10 08:38:03;;;;;;;;;;;;;;;;;;5079298;28;20362;-81
2022/01/10 08:40:29;;;;;;;;;;;;;;;;;;5076590;28;20022;-80
2022/01/10 08:42:55;;;;;;;;;;;;;;;;;;5079773;28;20370;-80
2022/01/10 08:45:22;;;;;;;;;;;;;;;;;;5078489;28;19928;-81
2022/01/10 08:47:51;;;;;;;;;;;;;;;;;;5077412;28;19931;-82
2022/01/10 08:50:17;;;;;;;;;;;;;;;;;;5078716;28;19939;-80
2022/01/10 08:52:43;;;;;;;;;;;;;;;;;;5084186;28;19924;-81
2022/01/10 08:55:10;;;;;;;;;;;;;;;;;;5081515;28;19924;-80
2022/01/10 08:57:37;;;;;;;;;;;;;;;;;;5058237;28;19929;-80
2022/01/10 09:00:03;;;;;;;;;;;;;;;;;;5077328;28;19924;-80
2022/01/10 09:02:29;;;;;;;;;;;;;;;;;;5073730;28;19926;-80
2022/01/10 09:04:56;;;;;;;;;;;;;;;;;;5080432;28;20270;-80
2022/01/10 09:07:22;;;;;;;;;;;;;;;;;;5079011;28;19935;-80
2022/01/10 09:09:49;;;;;;;;;;;;;;;;;;5079628;28;19920;-81
2022/01/10 09:12:15;;;;;;;;;;;;;;;;;;5077145;28;19924;-80
2022/01/10 09:14:56;;;;;;;;;;;;;;;;;;5061542;28;20015;-81
2022/01/10 09:17:22;;;;;;;;;;;;;;;;;;5039992;28;20065;-80
2022/01/10 09:19:48;;;;;;;;;;;;;;;;;;5079979;28;19920;-80
2022/01/10 09:22:14;;;;;;;;;;;;;;;;;;5079326;28;19927;-80
2022/01/10 09:24:46;;;;;;;;;;;;;;;;;;5056110;28;19928;-81
2022/01/10 09:27:13;;;;;;;;;;;;;;;;;;5062292;28;20370;-80
2022/01/10 09:29:40;;;;;;;;;;;;;;;;;;5060576;28;19943;-81
2022/01/10 09:32:06;;;;;;;;;;;;;;;;;;5060851;28;19932;-80
2022/01/10 09:34:32;;;;;;;;;;;;;;;;;;5074056;28;20055;-80
2022/01/10 09:36:58;;;;;;;;;;;;;;;;;;5058676;28;19927;-80
2022/01/10 09:39:24;;;;;;;;;;;;;;;;;;5074706;28;19955;-81
2022/01/10 09:41:50;;;;;;;;;;;;;;;;;;5090111;28;19929;-81
2022/01/10 09:44:16;;;;;;;;;;;;;;;;;;5076842;28;19920;-81
2022/01/10 09:46:43;;;;;;;;;;;;;;;;;;5077900;28;19920;-82
2022/01/10 09:49:10;;;;;;;;;;;;;;;;;;5080399;28;19921;-82
2022/01/10 09:51:37;;;;;;;;;;;;;;;;;;5072272;28;19933;-82
2022/01/10 09:54:03;;;;;;;;;;;;;;;;;;5077843;28;19924;-81
2022/01/10 09:56:29;;;;;;;;;;;;;;;;;;5074395;28;19965;-82
2022/01/10 09:58:57;;;;;;;;;;;;;;;;;;5076928;28;19920;-82
2022/01/10 10:01:24;;;;;;;;;;;;;;;;;;5073212;28;19970;-81
2022/01/10 10:04:05;;;;;;;;;;;;;;;;;;5078220;28;19928;-83
2022/01/10 10:06:31;;;;;;;;;;;;;;;;;;5069875;28;20282;-82
2022/01/10 10:08:57;;;;;;;;;;;;;;;;;;5058588;28;20333;-82
2022/01/10 10:11:23;;;;;;;;;;;;;;;;;;5075913;28;19924;-82
2022/01/10 10:13:54;;;;;;;;;;;;;;;;;;5076983;28;19920;-83
2022/01/10 10:16:20;;;;;;;;;;;;;;;;;;5074165;28;20010;-82
2022/01/10 10:18:47;;;;;;;;;;;;;;;;;;5072918;28;20014;-83
2022/01/10 10:21:13;;;;;;;;;;;;;;;;;;5074645;28;19925;-83
2022/01/10 10:23:41;;;;;;;;;;;;;;;;;;5075655;28;19924;-83
2022/01/10 10:26:08;;;;;;;;;;;;;;;;;;5071342;28;19963;-82
2022/01/10 10:28:37;;;;;;;;;;;;;;;;;;5072193;28;19920;-82
2022/01/10 10:31:17;;;;;;;;;;;;;;;;;;5078385;28;19990;-82
2022/01/10 10:33:44;;;;;;;;;;;;;;;;;;5073483;28;20278;-83
2022/01/10 10:36:10;;;;;;;;;;;;;;;;;;5079217;28;20328;-82
2022/01/10 10:38:36;;;;;;;;;;;;;;;;;;5073796;28;21322;-82
2022/01/10 10:41:02;;;;;;;;;;;;;;;;;;5080993;28;19973;-82
2022/01/10 10:43:28;;;;;;;;;;;;;;;;;;5075452;28;19972;-82
2022/01/10 10:45:54;;;;;;;;;;;;;;;;;;5077940;28;20301;-83
2022/01/10 10:48:20;;;;;;;;;;;;;;;;;;5076595;28;19931;-83
2022/01/10 10:50:47;;;;;;;;;;;;;;;;;;5061596;28;19932;-82
2022/01/10 10:53:14;;;;;;;;;;;;;;;;;;5074367;28;20678;-83
2022/01/10 10:55:43;;;;;;;;;;;;;;;;;;5076587;28;19928;-83
2022/01/10 10:58:09;;;;;;;;;;;;;;;;;;5076778;28;19924;-83
2022/01/10 11:00:35;;;;;;;;;;;;;;;;;;5067821;28;19924;-83
2022/01/10 11:03:01;;;;;;;;;;;;;;;;;;5070680;28;20335;-83
2022/01/10 11:05:29;;;;;;;;;;;;;;;;;;5072301;28;20401;-82
2022/01/10 11:07:55;;;;;;;;;;;;;;;;;;5077454;28;19928;-83
2022/01/10 11:10:24;;;;;;;;;;;;;;;;;;5076621;28;19924;-83
2022/01/10 11:12:50;;;;;;;;;;;;;;;;;;5075165;28;19940;-82
2022/01/10 11:15:17;;;;;;;;;;;;;;;;;;5072923;28;19927;-82
2022/01/10 11:17:44;;;;;;;;;;;;;;;;;;5059890;28;19924;-82
2022/01/10 11:20:10;;;;;;;;;;;;;;;;;;5076119;28;19931;-83
2022/01/10 11:22:36;;;;;;;;;;;;;;;;;;5053805;28;23625;-83
2022/01/10 11:25:03;;;;;;;;;;;;;;;;;;5076799;28;20366;-83
2022/01/10 11:27:29;;;;;;;;;;;;;;;;;;5071267;28;19919;-84
2022/01/10 11:29:57;;;;;;;;;;;;;;;;;;5076322;28;20015;-83
2022/01/10 11:32:24;;;;;;;;;;;;;;;;;;5077642;28;19967;-83
2022/01/10 11:34:50;;;;;;;;;;;;;;;;;;5080749;28;20020;-83
2022/01/10 11:37:16;;;;;;;;;;;;;;;;;;5075486;28;20397;-83
2022/01/10 11:39:45;;;;;;;;;;;;;;;;;;5099146;28;19924;-84
2022/01/10 11:42:11;;;;;;;;;;;;;;;;;;5081608;28;19928;-83
2022/01/10 11:44:38;;;;;;;;;;;;;;;;;;5079851;28;21900;-83
2022/01/10 11:47:04;;;;;;;;;;;;;;;;;;5073558;28;20374;-83
2022/01/10 11:49:31;;;;;;;;;;;;;;;;;;5057337;28;19966;-83
2022/01/10 11:51:58;;;;;;;;;;;;;;;;;;5055586;28;19981;-83
2022/01/10 11:54:26;;;;;;;;;;;;;;;;;;5076235;28;20012;-83
2022/01/10 11:56:53;;;;;;;;;;;;;;;;;;5080498;28;19928;-83
2022/01/10 11:59:20;;;;;;;;;;;;;;;;;;5056042;28;20265;-84
2022/01/10 12:01:47;;;;;;;;;;;;;;;;;;5075975;28;19927;-84
2022/01/10 12:04:14;;;;;;;;;;;;;;;;;;5059054;28;19985;-84
2022/01/10 12:06:40;;;;;;;;;;;;;;;;;;5095172;28;19920;-83
2022/01/10 12:09:06;;;;;;;;;;;;;;;;;;5102705;28;19920;-83
2022/01/10 12:11:32;;;;;;;;;;;;;;;;;;5057859;28;19976;-84
2022/01/10 12:14:00;;;;;;;;;;;;;;;;;;5080037;28;19928;-83
2022/01/10 12:16:27;;;;;;;;;;;;;;;;;;5076611;28;19966;-84
2022/01/10 12:18:54;;;;;;;;;;;;;;;;;;5074759;28;19924;-83
2022/01/10 12:21:20;;;;;;;;;;;;;;;;;;5091664;28;19920;-83
2022/01/10 12:23:47;;;;;;;;;;;;;;;;;;5037407;28;19948;-83
2022/01/10 12:26:20;;;;;;;;;;;;;;;;;;5048379;28;19943;-82
2022/01/10 12:28:48;;;;;;;;;;;;;;;;;;5030257;28;19959;-84
2022/01/10 12:31:15;;;;;;;;;;;;;;;;;;5038092;28;20358;-83
2022/01/10 12:33:41;;;;;;;;;;;;;;;;;;5034104;28;20038;-83
2022/01/10 12:36:07;;;;;;;;;;;;;;;;;;5054834;28;19928;-83
2022/01/10 12:38:34;;;;;;;;;;;;;;;;;;5053087;28;19928;-83
2022/01/10 12:41:00;;;;;;;;;;;;;;;;;;5037857;28;19925;-82
2022/01/10 12:43:26;;;;;;;;;;;;;;;;;;5035893;28;19975;-83
2022/01/10 12:45:52;;;;;;;;;;;;;;;;;;5038159;28;19963;-83
2022/01/10 12:48:19;;;;;;;;;;;;;;;;;;5033255;28;20323;-82
2022/01/10 12:50:45;;;;;;;;;;;;;;;;;;5054384;28;19924;-83
2022/01/10 12:53:11;;;;;;;;;;;;;;;;;;5036028;28;20004;-83
2022/01/10 12:55:37;;;;;;;;;;;;;;;;;;5050932;28;20756;-83
2022/01/10 12:58:06;;;;;;;;;;;;;;;;;;5048977;28;19935;-83
2022/01/10 13:00:41;;;;;;;;;;;;;;;;;;5067641;27;19928;-83
2022/01/10 13:03:07;;;;;;;;;;;;;;;;;;5084494;28;20010;-83
2022/01/10 13:05:34;;;;;;;;;;;;;;;;;;5062563;28;20026;-83
2022/01/10 13:08:19;;;;;;;;;;;;;;;;;;5084963;28;19937;-83
2022/01/10 13:10:52;;;;;;;;;;;;;;;;;;5087727;28;19920;-83
2022/01/10 13:13:18;;;;;;;;;;;;;;;;;;5080650;28;20400;-84
2022/01/10 13:15:44;;;;;;;;;;;;;;;;;;5083552;28;19955;-83
2022/01/10 13:18:10;;;;;;;;;;;;;;;;;;5099179;28;19931;-83
2022/01/10 13:20:39;;;;;;;;;;;;;;;;;;5085857;28;20699;-84
2022/01/10 13:23:06;;;;;;;;;;;;;;;;;;5088050;28;19916;-83
2022/01/10 13:25:32;;;;;;;;;;;;;;;;;;5086578;28;20022;-84
2022/01/10 13:27:58;;;;;;;;;;;;;;;;;;5084484;28;20387;-84
2022/01/10 13:30:27;;;;;;;;;;;;;;;;;;5072328;28;19967;-84
2022/01/10 13:32:54;;;;;;;;;;;;;;;;;;5064244;28;19932;-84
2022/01/10 13:35:20;;;;;;;;;;;;;;;;;;5059714;28;20707;-85
2022/01/10 13:37:48;;;;;;;;;;;;;;;;;;5061039;28;19925;-83
2022/01/10 13:40:16;;;;;;;;;;;;;;;;;;5043598;28;19924;-84
2022/01/10 13:43:03;;;;;;;;;;;;;;;;;;5063698;28;19927;-83
2022/01/10 13:45:50;;;;;;;;;;;;;;;;;;5014577;28;19932;-84
2022/01/10 13:48:19;;;;;;;;;;;;;;;;;;4995298;28;20466;-84
2022/01/10 13:50:48;;;;;;;;;;;;;;;;;;5018312;28;19921;-84
2022/01/10 13:53:15;;;;;;;;;;;;;;;;;;4985251;28;19978;-84
2022/01/10 13:55:43;;;;;;;;;;;;;;;;;;5000566;28;19979;-84
2022/01/10 13:58:11;;;;;;;;;;;;;;;;;;5012937;28;19921;-83
2022/01/10 14:00:38;;;;;;;;;;;;;;;;;;5004839;28;21749;-84
2022/01/10 14:03:05;;;;;;;;;;;;;;;;;;5007307;28;19921;-83
2022/01/10 14:05:31;;;;;;;;;;;;;;;;;;5008857;28;19973;-83
2022/01/10 14:07:57;;;;;;;;;;;;;;;;;;4992463;28;19929;-85
2022/01/10 14:10:24;;;;;;;;;;;;;;;;;;4993093;28;19921;-86
2022/01/10 14:12:53;;;;;;;;;;;;;;;;;;4989462;28;19976;-85
2022/01/10 14:15:20;;;;;;;;;;;;;;;;;;4991992;28;20379;-86
2022/01/10 14:17:46;;;;;;;;;;;;;;;;;;5071460;28;19921;-85
2022/01/10 14:20:12;;;;;;;;;;;;;;;;;;5090025;28;19920;-86
2022/01/10 14:22:38;;;;;;;;;;;;;;;;;;5081419;28;22805;-86
2022/01/10 14:25:04;;;;;;;;;;;;;;;;;;5074088;28;19927;-86
2022/01/10 14:27:31;;;;;;;;;;;;;;;;;;5076271;28;19924;-86
2022/01/10 14:29:57;;;;;;;;;;;;;;;;;;5063752;28;19928;-83
2022/01/10 14:32:23;;;;;;;;;;;;;;;;;;5072721;28;19925;-84
2022/01/10 14:34:50;;;;;;;;;;;;;;;;;;5075772;28;19920;-84
2022/01/10 14:37:33;;;;;;;;;;;;;;;;;;5047241;28;20410;-83
2022/01/10 14:39:59;;;;;;;;;;;;;;;;;;5040811;28;19951;-83
2022/01/10 14:42:29;;;;;;;;;;;;;;;;;;5050881;28;19943;-83
2022/01/10 14:44:56;;;;;;;;;;;;;;;;;;5035729;28;19955;-84
2022/01/10 14:47:22;;;;;;;;;;;;;;;;;;5049150;28;20007;-85
2022/01/10 14:49:48;;;;;;;;;;;;;;;;;;5040855;28;20490;-85
2022/01/10 14:52:15;;;;;;;;;;;;;;;;;;5052609;28;19936;-84
2022/01/10 14:54:41;;;;;;;;;;;;;;;;;;5038828;28;20023;-84
2022/01/10 14:57:07;;;;;;;;;;;;;;;;;;5053086;28;19975;-84
2022/01/10 14:59:33;;;;;;;;;;;;;;;;;;5047202;28;20083;-83
2022/01/10 15:01:59;;;;;;;;;;;;;;;;;;5036010;28;19928;-82
2022/01/10 15:04:26;;;;;;;;;;;;;;;;;;5041015;28;20308;-83
2022/01/10 15:06:53;;;;;;;;;;;;;;;;;;5042445;28;19921;-82
2022/01/10 15:09:21;;;;;;;;;;;;;;;;;;5040107;28;19924;-82
2022/01/10 15:11:48;;;;;;;;;;;;;;;;;;5070783;28;19927;-82
2022/01/10 15:14:14;;;;;;;;;;;;;;;;;;5072334;28;19924;-83
2022/01/10 15:16:40;;;;;;;;;;;;;;;;;;5062351;28;19928;-83
2022/01/10 15:19:09;;;;;;;;;;;;;;;;;;5071027;28;19985;-82
2022/01/10 15:21:40;;;;;;;;;;;;;;;;;;5067951;28;20027;-83
2022/01/10 15:24:06;;;;;;;;;;;;;;;;;;5078138;28;19928;-83
2022/01/10 15:26:36;;;;;;;;;;;;;;;;;;5078253;28;19952;-83
2022/01/10 15:29:03;;;;;;;;;;;;;;;;;;5075101;28;19952;-83
2022/01/10 15:31:32;;;;;;;;;;;;;;;;;;5067721;28;19995;-81
2022/01/10 15:33:59;;;;;;;;;;;;;;;;;;5067525;28;19924;-83
2022/01/10 15:36:25;;;;;;;;;;;;;;;;;;5072227;28;19920;-82
2022/01/10 15:38:52;;;;;;;;;;;;;;;;;;5070791;28;19970;-82
2022/01/10 15:41:18;;;;;;;;;;;;;;;;;;5072368;28;19977;-83
2022/01/10 15:43:45;;;;;;;;;;;;;;;;;;5065052;28;19924;-82
2022/01/10 15:46:11;;;;;;;;;;;;;;;;;;5063782;28;20371;-82
2022/01/10 15:48:37;;;;;;;;;;;;;;;;;;5062675;28;22654;-82
2022/01/10 15:51:03;;;;;;;;;;;;;;;;;;5067629;28;19924;-82
2022/01/10 15:53:29;;;;;;;;;;;;;;;;;;5065691;28;20781;-82
2022/01/10 15:56:05;;;;;;;;;;;;;;;;;;5069452;28;20370;-82
2022/01/10 15:58:33;;;;;;;;;;;;;;;;;;5067114;28;20033;-82
2022/01/10 16:00:59;;;;;;;;;;;;;;;;;;5071888;28;19935;-82
2022/01/10 16:03:26;;;;;;;;;;;;;;;;;;5064283;28;19924;-82
2022/01/10 16:05:55;;;;;;;;;;;;;;;;;;5073251;28;19937;-82
2022/01/10 16:08:21;;;;;;;;;;;;;;;;;;5065949;28;20290;-82
2022/01/10 16:10:50;;;;;;;;;;;;;;;;;;5069413;28;19924;-82
2022/01/10 16:13:16;;;;;;;;;;;;;;;;;;5072447;28;20271;-82
2022/01/10 16:15:46;;;;;;;;;;;;;;;;;;5070001;28;19936;-82
2022/01/10 16:18:12;;;;;;;;;;;;;;;;;;5068319;28;21014;-82
2022/01/10 16:20:41;;;;;;;;;;;;;;;;;;5062110;28;20019;-82
2022/01/10 16:23:07;;;;;;;;;;;;;;;;;;5066027;28;20298;-82
2022/01/10 16:25:33;;;;;;;;;;;;;;;;;;5063436;28;19933;-82
2022/01/10 16:28:00;;;;;;;;;;;;;;;;;;5067579;28;19924;-82
2022/01/10 16:30:27;;;;;;;;;;;;;;;;;;5068536;28;19928;-82
2022/01/10 16:32:53;;;;;;;;;;;;;;;;;;5070490;28;19934;-81
2022/01/10 16:35:19;;;;;;;;;;;;;;;;;;5052969;28;19928;-82
2022/01/10 16:37:45;;;;;;;;;;;;;;;;;;5075955;28;20366;-82
2022/01/10 16:40:11;;;;;;;;;;;;;;;;;;5092113;28;20578;-81
2022/01/10 16:42:37;;;;;;;;;;;;;;;;;;5087770;28;20083;-82
2022/01/10 16:45:03;;;;;;;;;;;;;;;;;;5088501;27;19935;-81
2022/01/10 16:47:30;;;;;;;;;;;;;;;;;;5085640;28;19924;-81
2022/01/10 16:49:56;;;;;;;;;;;;;;;;;;5071436;28;19957;-81
2022/01/10 16:52:23;;;;;;;;;;;;;;;;;;5069205;28;19932;-81
2022/01/10 16:54:50;;;;;;;;;;;;;;;;;;5075969;28;19976;-82
2022/01/10 16:57:22;;;;;;;;;;;;;;;;;;5090957;28;19920;-81